Time;durP1;ratioP1;P1;durP2;ratioP2;P2;SDS_P1;SDS_P2;PMS_P1;PMS_P2;Temp;Humidity;BMP_temperature;BMP_pressure;BME280_temperature;BME280_humidity;BME280_pressure;Samples;Min_cycle;Max_cycle;Signal;HPM_P1;HPM_P2
2021/05/16 00:00:18;;;;;;;0.40;0.20;;;11.80;99.90;;;;;;5071756;28;20858;-73
2021/05/16 00:02:44;;;;;;;0.40;0.20;;;11.70;99.90;;;;;;5051788;28;20428;-74
2021/05/16 00:05:11;;;;;;;0.40;0.20;;;12.30;99.90;;;;;;5051508;28;20749;-73
2021/05/16 00:07:37;;;;;;;0.40;0.20;;;11.80;99.90;;;;;;5051058;28;20389;-73
2021/05/16 00:10:05;;;;;;;0.40;0.20;;;11.80;99.90;;;;;;5051720;28;20378;-73
2021/05/16 00:12:31;;;;;;;0.40;0.20;;;11.80;99.90;;;;;;5051035;28;20378;-73
2021/05/16 00:14:57;;;;;;;0.40;0.20;;;11.80;99.90;;;;;;5051573;28;20404;-73
2021/05/16 00:17:23;;;;;;;0.40;0.30;;;11.80;99.90;;;;;;5050939;28;20385;-72
2021/05/16 00:19:48;;;;;;;0.40;0.20;;;11.70;99.90;;;;;;5051522;28;20760;-73
2021/05/16 00:22:14;;;;;;;0.40;0.30;;;11.80;99.90;;;;;;5051674;28;20867;-73
2021/05/16 00:24:40;;;;;;;0.40;0.20;;;11.70;99.90;;;;;;5050969;28;20476;-73
2021/05/16 00:27:06;;;;;;;0.40;0.20;;;11.80;99.90;;;;;;5051069;28;20469;-72
2021/05/16 00:29:31;;;;;;;0.40;0.20;;;11.70;99.90;;;;;;5050626;28;20862;-73
2021/05/16 00:31:57;;;;;;;0.40;0.20;;;11.70;99.90;;;;;;5050931;28;20417;-72
2021/05/16 00:34:23;;;;;;;0.40;0.20;;;11.70;99.90;;;;;;5050585;28;20762;-73
2021/05/16 00:36:48;;;;;;;0.40;0.20;;;11.60;99.90;;;;;;5051343;28;20892;-73
2021/05/16 00:39:14;;;;;;;0.40;0.20;;;11.70;99.90;;;;;;5051177;28;20381;-73
2021/05/16 00:41:40;;;;;;;0.40;0.20;;;11.60;99.90;;;;;;5050500;28;20401;-72
2021/05/16 00:44:06;;;;;;;0.40;0.30;;;11.50;99.90;;;;;;5051168;28;20380;-72
2021/05/16 00:46:32;;;;;;;0.40;0.20;;;11.30;99.90;;;;;;5050014;28;20381;-74
2021/05/16 00:48:57;;;;;;;0.40;0.20;;;11.30;99.90;;;;;;5051245;28;20392;-72
2021/05/16 00:51:23;;;;;;;0.40;0.20;;;11.30;99.90;;;;;;5049318;28;20443;-72
2021/05/16 00:53:49;;;;;;;0.40;0.20;;;11.30;99.90;;;;;;5051036;28;20437;-72
2021/05/16 00:56:15;;;;;;;0.40;0.20;;;11.30;99.90;;;;;;5050949;28;20374;-72
2021/05/16 00:58:41;;;;;;;0.40;0.28;;;11.20;99.90;;;;;;5050208;28;20383;-72
2021/05/16 01:01:11;;;;;;;0.40;0.20;;;11.90;99.90;;;;;;5059348;28;20539;-72
2021/05/16 01:03:37;;;;;;;0.40;0.25;;;11.40;99.90;;;;;;5070682;28;20443;-72
2021/05/16 01:06:04;;;;;;;0.40;0.20;;;11.30;99.90;;;;;;5069649;28;20792;-72
2021/05/16 01:08:29;;;;;;;0.40;0.20;;;11.20;99.90;;;;;;5070118;28;20406;-72
2021/05/16 01:10:55;;;;;;;0.60;0.60;;;11.10;99.90;;;;;;5070678;28;20909;-73
2021/05/16 01:13:21;;;;;;;0.40;0.20;;;11.00;99.90;;;;;;5085528;28;20939;-75
2021/05/16 01:15:47;;;;;;;0.40;0.20;;;10.90;99.90;;;;;;5070550;28;20388;-73
2021/05/16 01:18:14;;;;;;;0.40;0.30;;;11.00;99.90;;;;;;5070550;28;20368;-73
2021/05/16 01:20:42;;;;;;;0.40;0.20;;;11.30;99.90;;;;;;5068698;28;20410;-73
2021/05/16 01:23:15;;;;;;;0.70;0.70;;;10.90;99.90;;;;;;5069098;28;20752;-73
2021/05/16 01:25:44;;;;;;;0.40;0.20;;;10.80;99.90;;;;;;5069978;28;20784;-73
2021/05/16 01:28:13;;;;;;;0.40;0.20;;;10.80;99.90;;;;;;5070788;28;20667;-73
2021/05/16 01:30:40;;;;;;;0.40;0.30;;;10.90;99.90;;;;;;5068397;28;20494;-73
2021/05/16 01:33:07;;;;;;;0.40;0.20;;;10.80;99.90;;;;;;5070299;28;20468;-73
2021/05/16 01:35:34;;;;;;;0.40;0.20;;;10.80;99.90;;;;;;5069739;28;20411;-73
2021/05/16 01:38:00;;;;;;;0.40;0.20;;;10.90;99.90;;;;;;5070255;28;20478;-73
2021/05/16 01:40:26;;;;;;;0.40;0.20;;;10.90;99.90;;;;;;5069716;28;20439;-73
2021/05/16 01:42:54;;;;;;;0.40;0.20;;;11.10;99.90;;;;;;5068994;28;20862;-73
2021/05/16 01:45:24;;;;;;;0.40;0.20;;;11.10;99.90;;;;;;5070338;28;20410;-73
2021/05/16 01:47:53;;;;;;;1.80;0.60;;;11.10;99.90;;;;;;5070415;28;20391;-73
2021/05/16 01:50:21;;;;;;;0.40;0.20;;;11.10;99.90;;;;;;5070336;28;20384;-73
2021/05/16 01:52:48;;;;;;;0.40;0.20;;;11.10;99.90;;;;;;5069684;28;20726;-73
2021/05/16 01:55:15;;;;;;;0.40;0.20;;;11.10;99.90;;;;;;5070152;28;20977;-73
2021/05/16 01:57:43;;;;;;;0.40;0.20;;;11.10;99.90;;;;;;5069287;28;20564;-73
2021/05/16 02:00:12;;;;;;;0.40;0.20;;;11.10;99.90;;;;;;5069855;28;20407;-73
2021/05/16 02:02:39;;;;;;;0.40;0.20;;;11.10;99.90;;;;;;5070646;28;20403;-73
2021/05/16 02:05:09;;;;;;;0.40;0.30;;;11.20;99.90;;;;;;5074040;28;20394;-73
2021/05/16 02:07:36;;;;;;;0.40;0.25;;;11.20;99.90;;;;;;5073547;28;20386;-73
2021/05/16 02:10:03;;;;;;;0.40;0.20;;;11.20;99.90;;;;;;5074092;28;20422;-73
2021/05/16 02:12:29;;;;;;;0.40;0.20;;;11.40;99.90;;;;;;5073262;28;20383;-73
2021/05/16 02:14:54;;;;;;;0.40;0.20;;;11.20;99.90;;;;;;5073865;28;20380;-72
2021/05/16 02:17:20;;;;;;;0.40;0.20;;;11.20;99.90;;;;;;5073642;28;20380;-72
2021/05/16 02:19:46;;;;;;;0.40;0.20;;;11.10;99.90;;;;;;5073134;28;20400;-73
2021/05/16 02:22:14;;;;;;;0.40;0.20;;;11.20;99.90;;;;;;5073872;28;20395;-73
2021/05/16 02:24:43;;;;;;;0.40;0.20;;;11.20;99.90;;;;;;5071786;28;20407;-73
2021/05/16 02:27:08;;;;;;;0.40;0.30;;;10.90;99.90;;;;;;5073707;28;20729;-73
2021/05/16 02:29:34;;;;;;;0.40;0.20;;;11.10;99.90;;;;;;5073034;28;20387;-72
2021/05/16 02:31:59;;;;;;;0.40;0.20;;;11.10;99.90;;;;;;5073698;28;20387;-73
2021/05/16 02:34:25;;;;;;;0.40;0.20;;;11.00;99.90;;;;;;5073002;28;20384;-76
2021/05/16 02:36:51;;;;;;;0.40;0.20;;;11.10;99.90;;;;;;5073321;28;20481;-73
2021/05/16 02:39:18;;;;;;;0.40;0.20;;;11.10;99.90;;;;;;5073509;28;20537;-73
2021/05/16 02:41:44;;;;;;;0.40;0.20;;;11.00;99.90;;;;;;5073005;28;20475;-73
2021/05/16 02:44:09;;;;;;;0.40;0.20;;;10.90;99.90;;;;;;5072992;28;20459;-73
2021/05/16 02:46:37;;;;;;;0.40;0.20;;;11.10;99.90;;;;;;5072631;28;20383;-73
2021/05/16 02:49:03;;;;;;;0.40;0.28;;;10.90;99.90;;;;;;5073107;28;20434;-72
2021/05/16 02:51:28;;;;;;;0.40;0.20;;;10.80;99.90;;;;;;5072535;28;20412;-73
2021/05/16 02:53:54;;;;;;;0.40;0.20;;;10.70;99.90;;;;;;5072626;28;20380;-73
2021/05/16 02:56:20;;;;;;;0.40;0.30;;;10.70;99.90;;;;;;5072528;28;20395;-74
2021/05/16 02:58:45;;;;;;;0.40;0.20;;;10.70;99.90;;;;;;5072283;28;20372;-74
2021/05/16 03:01:11;;;;;;;0.40;0.20;;;10.50;99.90;;;;;;5073099;28;20430;-73
2021/05/16 03:03:38;;;;;;;0.40;0.20;;;10.60;99.90;;;;;;5072114;28;20453;-74
2021/05/16 03:06:06;;;;;;;0.40;0.20;;;10.60;99.90;;;;;;5072467;28;20848;-75
2021/05/16 03:08:31;;;;;;;0.40;0.30;;;10.50;99.90;;;;;;5071983;28;20372;-75
2021/05/16 03:10:57;;;;;;;0.40;0.30;;;10.40;99.90;;;;;;5071252;28;20403;-73
2021/05/16 03:13:23;;;;;;;0.40;0.30;;;10.10;99.90;;;;;;5072486;28;20378;-74
2021/05/16 03:15:48;;;;;;;0.40;0.20;;;10.30;99.90;;;;;;5071971;28;20372;-74
2021/05/16 03:18:14;;;;;;;0.40;0.20;;;11.40;99.90;;;;;;5072449;28;20417;-74
2021/05/16 03:20:40;;;;;;;0.40;0.30;;;10.30;99.90;;;;;;5071426;28;20495;-74
2021/05/16 03:23:06;;;;;;;0.40;0.30;;;10.40;99.90;;;;;;5072448;28;20423;-75
2021/05/16 03:25:34;;;;;;;0.40;0.20;;;10.40;99.90;;;;;;5071899;28;20376;-75
2021/05/16 03:28:01;;;;;;;0.40;0.20;;;10.40;99.90;;;;;;5072358;28;20380;-75
2021/05/16 03:30:27;;;;;;;0.40;0.20;;;10.70;99.90;;;;;;5072422;28;20403;-74
2021/05/16 03:32:53;;;;;;;0.40;0.30;;;10.90;99.90;;;;;;5071609;28;20491;-75
2021/05/16 03:35:19;;;;;;;0.40;0.20;;;10.40;99.90;;;;;;5071845;28;20410;-75
2021/05/16 03:37:44;;;;;;;0.40;0.20;;;10.40;99.90;;;;;;5071610;28;20471;-75
2021/05/16 03:40:11;;;;;;;0.40;0.20;;;10.40;99.90;;;;;;5070572;28;20399;-75
2021/05/16 03:42:37;;;;;;;0.40;0.30;;;10.50;99.90;;;;;;5071399;28;20808;-75
2021/05/16 03:45:04;;;;;;;0.40;0.20;;;10.60;99.90;;;;;;5059242;28;20987;-76
2021/05/16 03:47:30;;;;;;;0.40;0.30;;;10.50;99.90;;;;;;5062838;28;20477;-75
2021/05/16 03:49:55;;;;;;;0.40;0.30;;;10.50;99.90;;;;;;5060029;28;20838;-76
2021/05/16 03:52:21;;;;;;;0.40;0.20;;;10.50;99.90;;;;;;5059120;28;20756;-75
2021/05/16 03:54:47;;;;;;;0.40;0.20;;;10.50;99.90;;;;;;5057058;28;20388;-75
2021/05/16 03:57:18;;;;;;;0.40;0.20;;;10.40;99.90;;;;;;5058721;28;20392;-75
2021/05/16 03:59:44;;;;;;;0.40;0.20;;;10.50;99.90;;;;;;5057930;28;20427;-76
2021/05/16 04:02:10;;;;;;;0.40;0.20;;;10.60;99.90;;;;;;5059355;28;20395;-75
2021/05/16 04:04:36;;;;;;;0.40;0.20;;;10.50;99.90;;;;;;5057298;28;21616;-76
2021/05/16 04:07:03;;;;;;;0.40;0.20;;;10.40;99.90;;;;;;5059319;28;20927;-75
2021/05/16 04:09:28;;;;;;;0.40;0.20;;;10.30;99.90;;;;;;5059480;28;20412;-75
2021/05/16 04:11:54;;;;;;;0.50;0.50;;;10.40;99.90;;;;;;5058600;28;20878;-75
2021/05/16 04:14:22;;;;;;;0.40;0.20;;;10.30;99.90;;;;;;5057625;28;20392;-75
2021/05/16 04:16:48;;;;;;;0.40;0.20;;;10.60;99.90;;;;;;5058721;28;20384;-76
2021/05/16 04:19:14;;;;;;;0.40;0.20;;;10.60;99.90;;;;;;5059196;28;20390;-75
2021/05/16 04:21:39;;;;;;;0.40;0.30;;;10.50;99.90;;;;;;5058266;28;20924;-75
2021/05/16 04:24:06;;;;;;;0.40;0.30;;;10.80;99.90;;;;;;5057056;28;20392;-75
2021/05/16 04:26:32;;;;;;;0.40;0.30;;;10.70;99.90;;;;;;5058283;28;20388;-75
2021/05/16 04:28:58;;;;;;;0.40;0.30;;;10.70;99.90;;;;;;5057968;28;20391;-75
2021/05/16 04:31:23;;;;;;;0.40;0.20;;;10.70;99.90;;;;;;5059296;28;20392;-75
2021/05/16 04:33:50;;;;;;;0.40;0.30;;;10.90;99.90;;;;;;5058103;28;20897;-75
2021/05/16 04:36:16;;;;;;;0.40;0.20;;;10.80;99.90;;;;;;5057615;28;20774;-75
2021/05/16 04:38:42;;;;;;;0.40;0.20;;;10.90;99.90;;;;;;5058318;28;20384;-74
2021/05/16 04:41:07;;;;;;;0.40;0.20;;;9.80;99.90;;;;;;5058263;28;20419;-75
2021/05/16 04:43:33;;;;;;;0.40;0.20;;;10.80;99.90;;;;;;5058343;28;20403;-77
2021/05/16 04:45:59;;;;;;;0.40;0.20;;;10.70;99.90;;;;;;5056374;28;20491;-76
2021/05/16 04:48:25;;;;;;;0.40;0.20;;;10.80;99.90;;;;;;5057779;28;20403;-75
2021/05/16 04:50:50;;;;;;;0.40;0.22;;;11.00;99.90;;;;;;5057322;28;21313;-75
2021/05/16 04:53:16;;;;;;;0.40;0.20;;;11.20;99.90;;;;;;5058449;28;20384;-75
2021/05/16 04:55:41;;;;;;;0.40;0.20;;;10.80;99.90;;;;;;5055337;28;20758;-76
2021/05/16 04:58:09;;;;;;;0.40;0.20;;;11.00;99.90;;;;;;5058098;28;20397;-75
2021/05/16 05:00:34;;;;;;;0.40;0.20;;;10.90;99.90;;;;;;5057366;28;21019;-76
2021/05/16 05:03:00;;;;;;;0.40;0.30;;;11.00;99.90;;;;;;5058229;28;20901;-75
2021/05/16 05:05:26;;;;;;;0.50;0.40;;;11.80;99.90;;;;;;5056500;28;20387;-74
2021/05/16 05:07:52;;;;;;;0.40;0.30;;;11.10;99.90;;;;;;5058532;28;20471;-74
2021/05/16 05:10:17;;;;;;;0.40;0.30;;;11.00;99.90;;;;;;5058837;28;20526;-74
2021/05/16 05:12:43;;;;;;;0.40;0.20;;;11.00;99.90;;;;;;5058077;28;20876;-75
2021/05/16 05:15:09;;;;;;;0.40;0.20;;;11.00;99.90;;;;;;5056180;28;20384;-74
2021/05/16 05:17:40;;;;;;;0.40;0.30;;;11.00;99.90;;;;;;5057488;28;20399;-76
2021/05/16 05:20:06;;;;;;;0.40;0.30;;;11.30;99.90;;;;;;5057999;28;20438;-75
2021/05/16 05:22:32;;;;;;;0.40;0.30;;;11.20;99.90;;;;;;5058318;28;20528;-74
2021/05/16 05:24:57;;;;;;;0.40;0.20;;;11.30;99.90;;;;;;5066660;28;20927;-74
2021/05/16 05:27:24;;;;;;;0.40;0.20;;;11.90;99.90;;;;;;5070473;28;20410;-74
2021/05/16 05:29:50;;;;;;;0.40;0.30;;;11.30;99.90;;;;;;5069266;28;20387;-74
2021/05/16 05:32:15;;;;;;;0.40;0.30;;;11.40;99.90;;;;;;5069533;28;20403;-74
2021/05/16 05:34:41;;;;;;;0.40;0.20;;;11.40;99.90;;;;;;5068978;28;20393;-74
2021/05/16 05:37:07;;;;;;;0.40;0.20;;;11.60;99.90;;;;;;5070045;28;20897;-74
2021/05/16 05:39:32;;;;;;;0.40;0.30;;;11.40;99.90;;;;;;5074432;28;20384;-74
2021/05/16 05:41:58;;;;;;;0.40;0.30;;;11.70;99.90;;;;;;5073438;28;20463;-74
2021/05/16 05:44:23;;;;;;;0.40;0.20;;;11.60;99.90;;;;;;5074105;28;20387;-74
2021/05/16 05:46:49;;;;;;;0.40;0.30;;;11.80;99.90;;;;;;5073564;28;20383;-73
2021/05/16 05:49:15;;;;;;;0.40;0.20;;;11.80;99.90;;;;;;5074211;28;20383;-74
2021/05/16 05:51:41;;;;;;;0.40;0.20;;;11.70;99.90;;;;;;5073255;28;20388;-74
2021/05/16 05:54:06;;;;;;;0.40;0.30;;;12.00;99.90;;;;;;5072713;28;20376;-73
2021/05/16 05:56:34;;;;;;;0.40;0.30;;;11.70;99.90;;;;;;5072638;28;20383;-73
2021/05/16 05:58:59;;;;;;;0.40;0.20;;;11.80;99.90;;;;;;5073324;28;20738;-74
2021/05/16 06:01:25;;;;;;;0.40;0.40;;;11.90;99.90;;;;;;5073871;28;20419;-73
2021/05/16 06:03:51;;;;;;;0.40;0.20;;;11.90;99.90;;;;;;5073913;28;20384;-73
2021/05/16 06:06:16;;;;;;;0.40;0.20;;;12.00;99.90;;;;;;5073958;28;20413;-73
2021/05/16 06:08:42;;;;;;;0.40;0.30;;;11.90;99.90;;;;;;5073730;28;20865;-73
2021/05/16 06:11:08;;;;;;;0.40;0.20;;;11.90;99.90;;;;;;5072884;28;20405;-72
2021/05/16 06:13:34;;;;;;;0.40;0.20;;;11.90;99.90;;;;;;5073957;28;20913;-73
2021/05/16 06:16:00;;;;;;;0.40;0.20;;;11.90;99.90;;;;;;5073414;28;20380;-74
2021/05/16 06:18:25;;;;;;;0.40;0.20;;;11.90;99.90;;;;;;5073962;28;20387;-73
2021/05/16 06:20:51;;;;;;;0.40;0.20;;;11.90;99.90;;;;;;5073179;28;20537;-73
2021/05/16 06:23:18;;;;;;;0.40;0.20;;;12.20;99.90;;;;;;5073769;28;20928;-73
2021/05/16 06:25:45;;;;;;;0.40;0.20;;;12.00;99.90;;;;;;5073171;28;20376;-73
2021/05/16 06:28:11;;;;;;;0.40;0.30;;;12.00;99.90;;;;;;5074074;28;20376;-73
2021/05/16 06:30:37;;;;;;;0.40;0.20;;;12.00;99.90;;;;;;5073623;28;20490;-72
2021/05/16 06:33:02;;;;;;;0.40;0.20;;;12.00;99.90;;;;;;5073597;28;20423;-73
2021/05/16 06:35:28;;;;;;;0.40;0.20;;;12.10;99.90;;;;;;5073149;28;20403;-73
2021/05/16 06:37:54;;;;;;;0.40;0.20;;;12.10;99.90;;;;;;5073102;28;20383;-73
2021/05/16 06:40:20;;;;;;;0.40;0.20;;;12.20;99.90;;;;;;5071783;28;20442;-74
2021/05/16 06:42:46;;;;;;;0.40;0.20;;;12.30;99.90;;;;;;5070438;28;20384;-73
2021/05/16 06:45:13;;;;;;;0.40;0.20;;;12.30;99.90;;;;;;5072149;28;20380;-73
2021/05/16 06:47:39;;;;;;;0.40;0.30;;;12.40;99.90;;;;;;5073779;28;20380;-73
2021/05/16 06:50:08;;;;;;;0.40;0.20;;;12.40;99.90;;;;;;5072564;28;20390;-73
2021/05/16 06:52:35;;;;;;;0.40;0.20;;;12.50;99.90;;;;;;5072386;28;20866;-72
2021/05/16 06:55:04;;;;;;;0.40;0.30;;;12.60;99.90;;;;;;5072734;28;20647;-73
2021/05/16 06:57:31;;;;;;;0.40;0.30;;;12.60;99.90;;;;;;5073486;28;20431;-72
2021/05/16 06:59:57;;;;;;;0.40;0.20;;;13.30;99.90;;;;;;5087975;28;20416;-73
2021/05/16 07:02:22;;;;;;;0.40;0.30;;;12.70;99.90;;;;;;5073410;28;20394;-73
2021/05/16 07:04:48;;;;;;;0.40;0.30;;;12.90;99.90;;;;;;5088257;28;20753;-72
2021/05/16 07:07:14;;;;;;;0.40;0.20;;;12.80;99.90;;;;;;5073341;28;20380;-73
2021/05/16 07:09:42;;;;;;;0.40;0.30;;;12.90;99.90;;;;;;5073249;28;20408;-73
2021/05/16 07:12:09;;;;;;;0.40;0.20;;;13.00;99.90;;;;;;5073078;28;20449;-73
2021/05/16 07:14:35;;;;;;;0.40;0.20;;;13.00;99.90;;;;;;5073143;28;20372;-73
2021/05/16 07:17:00;;;;;;;0.40;0.30;;;13.10;99.90;;;;;;5072280;28;20451;-73
2021/05/16 07:19:26;;;;;;;0.40;0.30;;;13.30;99.90;;;;;;5072788;28;20776;-74
2021/05/16 07:21:52;;;;;;;0.40;0.20;;;13.20;99.90;;;;;;5072180;28;20434;-73
2021/05/16 07:24:17;;;;;;;0.40;0.30;;;13.30;99.90;;;;;;5072826;28;20874;-72
2021/05/16 07:26:43;;;;;;;0.40;0.20;;;13.30;99.90;;;;;;5072283;28;20380;-76
2021/05/16 07:29:09;;;;;;;0.40;0.30;;;13.30;99.90;;;;;;5072428;28;20376;-73
2021/05/16 07:31:34;;;;;;;0.40;0.20;;;13.40;99.90;;;;;;5072990;28;20521;-73
2021/05/16 07:34:00;;;;;;;0.40;0.20;;;13.50;99.90;;;;;;5072206;28;20383;-73
2021/05/16 07:36:26;;;;;;;0.40;0.20;;;13.50;99.90;;;;;;5072094;28;20407;-73
2021/05/16 07:38:51;;;;;;;0.40;0.30;;;13.50;99.90;;;;;;5071978;28;20386;-73
2021/05/16 07:41:20;;;;;;;0.40;0.30;;;13.70;99.90;;;;;;5072170;28;20458;-74
2021/05/16 07:43:45;;;;;;;0.40;0.30;;;13.70;99.90;;;;;;5071960;28;20383;-72
2021/05/16 07:46:11;;;;;;;0.40;0.20;;;13.80;98.40;;;;;;5072626;28;20799;-73
2021/05/16 07:48:36;;;;;;;0.40;0.20;;;13.80;98.50;;;;;;5072452;28;20854;-72
2021/05/16 07:51:02;;;;;;;0.40;0.20;;;13.90;99.10;;;;;;5071625;28;20915;-72
2021/05/16 07:53:31;;;;;;;0.40;0.30;;;14.10;99.20;;;;;;5072426;28;20388;-73
2021/05/16 07:55:56;;;;;;;0.40;0.40;;;14.30;99.20;;;;;;5071666;28;20380;-73
2021/05/16 07:58:22;;;;;;;0.40;0.30;;;14.20;98.20;;;;;;5072111;28;20382;-72
2021/05/16 08:00:48;;;;;;;0.40;0.30;;;14.40;98.30;;;;;;5069688;28;20430;-71
2021/05/16 08:03:14;;;;;;;0.40;0.25;;;14.40;98.00;;;;;;5071981;28;20388;-72
2021/05/16 08:05:39;;;;;;;0.40;0.20;;;14.50;98.30;;;;;;5071950;28;20387;-73
2021/05/16 08:08:05;;;;;;;0.40;0.20;;;14.40;97.40;;;;;;5071433;28;20677;-73
2021/05/16 08:10:31;;;;;;;0.40;0.30;;;14.40;97.30;;;;;;5071630;28;20929;-72
2021/05/16 08:12:57;;;;;;;0.40;0.30;;;14.40;97.20;;;;;;5069796;28;20875;-72
2021/05/16 08:15:24;;;;;;;0.40;0.30;;;14.40;96.90;;;;;;5071732;28;20391;-72
2021/05/16 08:17:51;;;;;;;0.40;0.30;;;14.40;97.20;;;;;;5070721;28;20428;-74
2021/05/16 08:20:17;;;;;;;0.40;0.20;;;14.20;96.80;;;;;;5071815;28;20399;-72
2021/05/16 08:22:42;;;;;;;0.40;0.20;;;14.40;97.40;;;;;;5071866;28;20477;-73
2021/05/16 08:25:10;;;;;;;0.40;0.20;;;14.30;96.50;;;;;;5071327;28;20414;-72
2021/05/16 08:27:37;;;;;;;0.40;0.20;;;14.20;97.10;;;;;;5071459;28;20394;-72
2021/05/16 08:30:47;;;;;;;0.40;0.20;;;14.00;96.70;;;;;;5071177;28;20426;-73
2021/05/16 08:33:13;;;;;;;1.20;0.90;;;14.10;97.20;;;;;;5071322;28;20380;-73
2021/05/16 08:35:45;;;;;;;0.40;0.30;;;14.20;96.60;;;;;;5071292;28;20462;-73
2021/05/16 08:38:20;;;;;;;0.40;0.30;;;14.30;95.90;;;;;;5070657;28;20805;-76
2021/05/16 08:40:45;;;;;;;0.40;0.30;;;14.30;96.00;;;;;;5071098;28;20431;-74
2021/05/16 08:43:17;;;;;;;0.40;0.30;;;14.40;95.80;;;;;;5070904;28;20423;-73
2021/05/16 08:45:46;;;;;;;0.40;0.20;;;14.40;96.30;;;;;;5070443;28;20379;-75
2021/05/16 08:48:11;;;;;;;0.40;0.20;;;14.50;94.90;;;;;;5070588;28;20933;-75
2021/05/16 08:50:37;;;;;;;0.40;0.30;;;14.60;94.00;;;;;;5071580;28;20384;-73
2021/05/16 08:53:02;;;;;;;0.40;0.20;;;14.70;93.20;;;;;;5070315;28;20384;-73
2021/05/16 08:55:28;;;;;;;0.40;0.30;;;14.70;91.80;;;;;;5071248;28;20403;-74
2021/05/16 08:57:54;;;;;;;0.40;0.20;;;14.70;91.70;;;;;;5070211;28;20371;-74
2021/05/16 09:00:28;;;;;;;0.40;0.20;;;14.70;92.30;;;;;;5070788;28;20873;-73
2021/05/16 09:03:07;;;;;;;0.40;0.20;;;14.80;92.20;;;;;;5071037;28;20730;-76
2021/05/16 09:05:37;;;;;;;0.40;0.30;;;14.80;91.40;;;;;;5071032;28;20466;-73
2021/05/16 09:08:12;;;;;;;0.40;0.25;;;14.70;91.80;;;;;;5070501;28;20380;-74
2021/05/16 09:10:40;;;;;;;0.40;0.20;;;14.70;90.80;;;;;;5071101;28;20410;-74
2021/05/16 09:13:07;;;;;;;0.40;0.30;;;14.70;90.90;;;;;;5070230;28;20372;-73
2021/05/16 09:15:33;;;;;;;0.40;0.20;;;14.80;90.40;;;;;;5071167;28;20467;-75
2021/05/16 09:17:59;;;;;;;0.40;0.20;;;15.10;89.30;;;;;;5070499;28;20372;-75
2021/05/16 09:20:25;;;;;;;0.40;0.20;;;15.00;89.20;;;;;;5071147;28;20410;-73
2021/05/16 09:22:51;;;;;;;0.40;0.23;;;14.90;88.20;;;;;;5071040;28;20380;-72
2021/05/16 09:25:31;;;;;;;0.40;0.20;;;15.00;90.10;;;;;;5070356;28;20387;-73
2021/05/16 09:28:14;;;;;;;0.40;0.20;;;15.10;88.60;;;;;;5070285;28;20376;-72
2021/05/16 09:30:41;;;;;;;0.40;0.30;;;15.10;89.00;;;;;;5070880;28;20423;-72
2021/05/16 09:33:08;;;;;;;0.40;0.30;;;15.10;88.60;;;;;;5070241;28;20372;-72
2021/05/16 09:35:47;;;;;;;0.40;0.20;;;15.20;89.90;;;;;;5070579;28;20396;-70
2021/05/16 09:38:21;;;;;;;0.40;0.20;;;15.30;90.10;;;;;;5070243;28;20768;-70
2021/05/16 09:40:55;;;;;;;0.40;0.20;;;15.40;88.80;;;;;;5069866;28;20407;-72
2021/05/16 09:43:29;;;;;;;0.40;0.25;;;15.50;87.10;;;;;;5070242;28;20387;-74
2021/05/16 09:46:08;;;;;;;0.40;0.20;;;15.40;87.30;;;;;;5070500;28;20805;-72
2021/05/16 09:48:39;;;;;;;0.40;0.30;;;15.50;85.00;;;;;;5068887;28;20772;-70
2021/05/16 09:51:14;;;;;;;0.40;0.30;;;15.60;84.10;;;;;;5069845;28;20420;-72
2021/05/16 09:53:57;;;;;;;0.40;0.30;;;15.50;84.40;;;;;;5070320;28;20405;-73
2021/05/16 09:56:37;;;;;;;0.70;0.60;;;15.60;85.40;;;;;;5070623;28;20383;-71
2021/05/16 09:59:05;;;;;;;0.40;0.30;;;15.70;86.00;;;;;;5069687;28;20363;-71
2021/05/16 10:01:31;;;;;;;0.40;0.30;;;15.70;84.80;;;;;;5070558;28;20487;-71
2021/05/16 10:03:59;;;;;;;0.40;0.20;;;15.70;85.90;;;;;;5070139;28;20922;-74
2021/05/16 10:06:26;;;;;;;0.40;0.30;;;15.70;85.40;;;;;;5069586;28;20846;-70
2021/05/16 10:08:53;;;;;;;0.40;0.30;;;15.60;87.70;;;;;;5067526;28;20384;-69
2021/05/16 10:11:30;;;;;;;0.40;0.20;;;15.50;87.10;;;;;;5069633;28;20388;-68
2021/05/16 10:14:19;;;;;;;0.40;0.20;;;15.50;86.70;;;;;;5063802;28;20473;-69
2021/05/16 10:16:48;;;;;;;0.40;0.30;;;15.20;84.20;;;;;;5065622;28;20880;-69
2021/05/16 10:19:16;;;;;;;0.40;0.20;;;15.10;89.70;;;;;;5067397;28;20400;-69
2021/05/16 10:21:42;;;;;;;0.40;0.30;;;15.30;89.60;;;;;;5066476;28;20908;-70
2021/05/16 10:24:16;;;;;;;0.40;0.20;;;15.40;86.70;;;;;;5069120;28;20413;-72
2021/05/16 10:26:43;;;;;;;0.40;0.30;;;15.20;85.60;;;;;;5070820;28;20834;-69
2021/05/16 10:29:15;;;;;;;0.40;0.20;;;15.50;85.70;;;;;;5069713;28;20387;-69
2021/05/16 10:31:54;;;;;;;0.40;0.30;;;15.40;85.20;;;;;;5064571;28;20441;-71
2021/05/16 10:34:28;;;;;;;0.40;0.30;;;15.50;84.80;;;;;;5061682;28;20396;-70
2021/05/16 10:36:55;;;;;;;0.40;0.30;;;15.60;84.40;;;;;;5059971;28;20466;-73
2021/05/16 10:39:39;;;;;;;0.40;0.20;;;15.50;85.70;;;;;;5059394;28;20556;-69
2021/05/16 10:42:11;;;;;;;0.40;0.40;;;15.50;86.00;;;;;;5055946;28;20683;-70
2021/05/16 10:44:39;;;;;;;0.40;0.22;;;15.60;85.70;;;;;;5058412;28;20489;-72
2021/05/16 10:47:06;;;;;;;0.40;0.20;;;15.50;86.30;;;;;;5058838;28;20392;-73
2021/05/16 10:49:33;;;;;;;0.40;0.20;;;15.60;84.30;;;;;;5058686;28;20471;-71
2021/05/16 10:52:30;;;;;;;0.40;0.30;;;15.40;84.70;;;;;;5055970;28;20467;-70
2021/05/16 10:54:56;;;;;;;0.40;0.20;;;15.40;85.60;;;;;;5058506;28;20995;-69
2021/05/16 10:57:24;;;;;;;0.40;0.30;;;15.60;86.60;;;;;;5059233;28;20379;-69
2021/05/16 10:59:51;;;;;;;0.40;0.20;;;15.80;85.20;;;;;;5060271;28;20478;-69
2021/05/16 11:02:54;;;;;;;0.40;0.20;;;15.60;85.80;;;;;;5057701;28;20878;-69
2021/05/16 11:08:31;;;;;;;0.40;0.20;;;15.70;86.40;;;;;;5059409;28;20884;-75
2021/05/16 11:10:59;;;;;;;0.40;0.30;;;15.70;87.30;;;;;;5059698;28;20453;-71
2021/05/16 11:13:28;;;;;;;13.70;1.00;;;15.70;86.50;;;;;;5056721;28;20388;-73
2021/05/16 11:16:05;;;;;;;0.40;0.20;;;15.80;86.80;;;;;;5059790;28;20411;-72
2021/05/16 11:18:31;;;;;;;0.40;0.30;;;15.80;87.20;;;;;;5060445;28;20396;-70
2021/05/16 11:21:01;;;;;;;0.40;0.30;;;15.60;87.00;;;;;;5059517;28;20443;-70
2021/05/16 11:23:34;;;;;;;0.40;0.30;;;15.70;89.10;;;;;;5057542;28;20419;-72
2021/05/16 11:26:04;;;;;;;0.40;0.30;;;15.50;87.10;;;;;;5059584;28;20474;-74
2021/05/16 11:28:38;;;;;;;0.40;0.20;;;15.40;86.30;;;;;;5059809;28;20421;-71
2021/05/16 11:31:12;;;;;;;0.40;0.20;;;15.50;87.70;;;;;;5059823;28;20412;-69
2021/05/16 11:33:39;;;;;;;0.40;0.20;;;15.50;87.20;;;;;;5058554;28;20434;-72
2021/05/16 11:36:06;;;;;;;0.40;0.20;;;15.40;86.10;;;;;;5058119;28;20414;-77
2021/05/16 11:38:35;;;;;;;0.40;0.20;;;15.40;86.60;;;;;;5059185;28;20449;-69
2021/05/16 11:41:01;;;;;;;0.40;0.28;;;15.30;90.20;;;;;;5059045;28;20412;-72
2021/05/16 11:43:28;;;;;;;0.40;0.20;;;15.20;91.00;;;;;;5055263;28;20383;-71
2021/05/16 11:45:54;;;;;;;0.40;0.30;;;15.00;92.60;;;;;;5058728;28;20793;-70
2021/05/16 11:48:33;;;;;;;0.40;0.20;;;14.80;93.20;;;;;;5057326;28;20430;-69
2021/05/16 11:51:04;;;;;;;0.40;0.20;;;14.80;94.20;;;;;;5056386;28;20408;-70
2021/05/16 11:53:30;;;;;;;0.40;0.20;;;14.90;94.00;;;;;;5054437;28;20396;-71
2021/05/16 11:56:02;;;;;;;0.40;0.20;;;14.90;92.60;;;;;;5058291;28;20418;-69
2021/05/16 11:58:28;;;;;;;0.40;0.28;;;14.90;93.10;;;;;;5058208;28;20452;-75
2021/05/16 12:00:54;;;;;;;0.40;0.30;;;15.00;92.00;;;;;;5058867;28;20420;-72
2021/05/16 12:03:19;;;;;;;0.40;0.20;;;14.90;91.10;;;;;;5055956;28;20402;-71
2021/05/16 12:05:46;;;;;;;0.40;0.20;;;14.90;91.40;;;;;;5058472;28;20449;-75
2021/05/16 12:08:13;;;;;;;0.40;0.30;;;14.90;91.90;;;;;;5057039;28;20453;-73
2021/05/16 12:10:39;;;;;;;0.40;0.30;;;14.90;91.90;;;;;;5058471;28;20388;-75
2021/05/16 12:13:22;;;;;;;0.45;0.38;;;14.90;92.70;;;;;;5056531;28;20387;-74
2021/05/16 12:15:48;;;;;;;0.40;0.20;;;14.90;92.60;;;;;;5058641;28;20398;-73
2021/05/16 12:18:22;;;;;;;0.40;0.20;;;14.70;93.90;;;;;;5057794;28;20769;-73
2021/05/16 12:21:06;;;;;;;0.40;0.30;;;14.60;95.10;;;;;;5059710;28;20453;-74
2021/05/16 12:23:32;;;;;;;0.40;0.40;;;14.50;96.70;;;;;;5057599;28;20394;-74
2021/05/16 12:25:58;;;;;;;0.40;0.20;;;14.30;98.40;;;;;;5058891;28;20384;-73
2021/05/16 12:28:24;;;;;;;0.40;0.30;;;14.20;99.90;;;;;;5058852;28;20627;-75
2021/05/16 12:30:51;;;;;;;0.40;0.30;;;14.20;99.90;;;;;;5057152;28;20400;-75
2021/05/16 12:33:18;;;;;;;0.40;0.30;;;13.90;99.90;;;;;;5054005;28;20822;-74
2021/05/16 12:35:45;;;;;;;0.40;0.20;;;14.00;99.90;;;;;;5057810;28;20901;-74
2021/05/16 12:38:16;;;;;;;0.40;0.30;;;14.10;99.90;;;;;;5055747;28;20392;-74
2021/05/16 12:40:42;;;;;;;0.40;0.30;;;14.10;99.90;;;;;;5058635;28;20805;-74
2021/05/16 12:43:10;;;;;;;0.40;0.20;;;14.20;99.90;;;;;;5056343;28;20465;-74
2021/05/16 12:45:39;;;;;;;0.40;0.30;;;14.30;99.90;;;;;;5057976;28;20458;-73
2021/05/16 12:48:15;;;;;;;0.40;0.20;;;14.30;99.90;;;;;;5058259;28;20792;-74
2021/05/16 12:50:43;;;;;;;0.40;0.20;;;14.20;99.90;;;;;;5057149;28;20404;-73
2021/05/16 12:53:21;;;;;;;0.40;0.20;;;14.10;99.90;;;;;;5054538;28;20387;-74